Language selection

Features

My Weather Profile Weather Topics  | 

Pacific - North Coast: Past 24 Hour Conditions

 

Bonilla Island

04:00 AM PDT 22 October 2019
Disclaimer

This table is a summary of hourly weather conditions for the past 24 hours.
Please note that these observations might not always be representative of weather conditions over their associated marine area.

Date / Time
(PDT)
Wind(knots) Conditions Visibility(km) Pressure(kPa) Air tempC) Relative humidity(%) Dew pointC)
22 October 2019
4:00 WNW 16 N/A N/A 101.8 11 76 7
3:00 WNW 19 gust 25 N/A N/A 101.6 11 73 6
2:00 WNW 24 gust 32 N/A N/A 101.3 11 72 6
1:00 WNW 31 gust 41 N/A N/A 101.0 10 75 6
0:00 W 32 gust 40 N/A N/A 100.6 10 76 6
21 October 2019
23:00 WSW 30 gust 40 N/A N/A 100.2 11 79 7
22:00 SW 37 gust 42 N/A N/A 99.7 12 76 8
21:00 S 31 gust 37 N/A N/A 99.6 12 82 9
20:00 SSE 33 gust 40 N/A N/A 99.6 11 94 10
19:00 SSE 28 gust 38 N/A N/A 99.7 11 92 10
18:00 SSE 25 gust 30 N/A N/A 99.7 12 93 11
17:00 SE 23 gust 36 N/A N/A 99.8 11 95 10
16:00 SE 31 gust 42 N/A N/A 99.9 10 95 9
15:00 SE 23 gust 34 N/A N/A 100.1 10 94 9
14:00 SE 19 gust 28 N/A N/A 100.2 9 94 8
13:00 SE 19 gust 39 N/A N/A 100.4 10 94 9
12:00 SE 26 gust 33 N/A N/A 100.6 10 92 9
11:00 SE 26 gust 33 N/A N/A 100.6 10 90 9
10:00 SE 23 gust 28 N/A N/A 100.7 11 88 9
9:00 SSE 21 N/A N/A 100.7 10 88 9
8:00 SSE 15 N/A N/A 100.7 10 91 9
7:00 SE 8 gust 15 N/A N/A 100.8 10 92 9
6:00 ESE 9 gust 16 N/A N/A 100.8 9 92 8
5:00 SE 6 N/A N/A 100.8 9 90 8
4:00 ESE 5 N/A N/A 100.8 10 89 8

Zoom-in to make a selection

Map of Pacific - North Coast marine weather areas Middle Nomad - 46004 South Nomad - 46036 Dixon Entrance Central - 46145 South Moresby - 46147 Nanakwa Shoal - 46181 North Hecate Strait - 46183 North Nomad - 46184 South Hecate Strait - 46185 West Sea Otter - 46204 West Dixon Entrance - 46205 East Dellwood - 46207 West Moresby - 46208 Sartine Island Cape St.James Kindakun Rocks Langara Island Masset Municipal Airport Rose Spit Sandspit Airport Bella Bella Airport Bella Coola Airport Bonilla Island Cathedral Point Cumshewa Island Grey Islet Holland Rock Lucy Islands Lightstation Prince Rupert Airport
Legend:
buoy Buoy
land station Land Station

Pacific - North Coast Area

Another Region

What we are doing

Date modified: